Charlie C — WDH5463 — position and weather

sailwx.info

Track history (hours):
 
Tides and Currents Weather Stations Pressure Air Temp Water Temp Dewpoint Dewpoint Depression Visibility Wind Speed Wind Dir Waves Ship Positions

Charlie C

Owner: Ingram Barge Company LLC, NASHVILLE, TN. More information available from US FCC via Universal Licensing System and Coast Guard Vessel Documentation Center.

Last reported at 2017-Sep-23 21:27 UTC. Time now 2017-Sep-23 23:40 UTC.
Position N 29°50' W 092°18'.

Length 27 m; draft 3 m.

Type: Towing. MMSI: 366961220.

Date/timePositionNaut miles runAvg speedWind from/ knotsBaromVisibWave heightAir tempDewpointWater temp
2017-Sep-23 21:27N 29°50' W 092°18'2 2.2
2017-Sep-23 20:38N 29°49' W 092°17'1 2.6
2017-Sep-23 20:26N 29°49' W 092°16'1 2.6
2017-Sep-23 20:00N 29°48' W 092°15'  
2017-Sep-19 08:51N 29°50' W 092°00'2 4.4
2017-Sep-19 08:24N 29°49' W 092°02'2 4.4
2017-Sep-19 08:00N 29°48' W 092°04'2 4.5
2017-Sep-19 07:30N 29°48' W 092°06'2 4.6
2017-Sep-19 07:00N 29°47' W 092°09'2 3.7
2017-Sep-19 06:30N 29°47' W 092°11'0 0.1
2017-Sep-19 06:00N 29°47' W 092°11'0 0.0
2017-Sep-19 05:30N 29°47' W 092°11'0 0.0
2017-Sep-19 05:00N 29°47' W 092°11'0 0.1
2017-Sep-19 04:30N 29°47' W 092°11'1 2.4
2017-Sep-19 04:00N 29°47' W 092°10'2 3.1
2017-Sep-19 03:31N 29°47' W 092°08'1 2.3
2017-Sep-19 03:00N 29°48' W 092°07'2 3.5
2017-Sep-19 02:30N 29°48' W 092°05'2 3.3
2017-Sep-19 02:01N 29°49' W 092°03'2 3.2
2017-Sep-19 01:30N 29°49' W 092°01'4 3.3
2017-Sep-19 00:25N 29°50' W 091°57'  
2017-Sep-15 17:30N 29°48' W 092°15'0 0.0
2017-Sep-15 03:40N 29°48' W 092°15'0 1.9
2017-Sep-15 03:30N 29°48' W 092°15'2 3.1
2017-Sep-15 03:00N 29°49' W 092°17'2 3.8
2017-Sep-15 02:30N 29°50' W 092°18'2 3.8
2017-Sep-15 01:55N 29°51' W 092°21'3 3.9
2017-Sep-15 01:15N 29°53' W 092°23'36 3.5
2017-Sep-14 14:56N 29°56' W 093°05'1 3.1
2017-Sep-14 14:30N 29°56' W 093°06'2 3.0
2017-Sep-14 14:00N 29°56' W 093°08'2 3.1
2017-Sep-14 13:30N 29°56' W 093°10'1 2.4
2017-Sep-14 12:56N 29°57' W 093°11'1 3.0
2017-Sep-14 12:30N 29°58' W 093°12'2 3.3
2017-Sep-14 12:00N 29°60' W 093°13'2 3.2
2017-Sep-14 11:30N 30°01' W 093°14'1 3.0
2017-Sep-14 11:00N 30°02' W 093°15'2 3.1
2017-Sep-14 10:31N 30°03' W 093°16'1 2.8
2017-Sep-14 10:00N 30°05' W 093°17'1 2.7
2017-Sep-14 09:29N 30°05' W 093°18'1 2.1
2017-Sep-14 09:00N 30°06' W 093°19'0 0.3
2017-Sep-14 08:30N 30°06' W 093°19'0 0.1
2017-Sep-14 08:00N 30°06' W 093°19'0 0.0
2017-Sep-14 07:30N 30°06' W 093°19'0 0.1
2017-Sep-14 07:00N 30°06' W 093°19'0 0.0
2017-Sep-14 06:30N 30°06' W 093°19'0 0.0
2017-Sep-14 06:00N 30°06' W 093°19'0 0.1
2017-Sep-14 05:30N 30°06' W 093°19'0 0.0
2017-Sep-14 05:00N 30°06' W 093°19'0 0.0
2017-Sep-14 04:30N 30°06' W 093°19'0 0.0
2017-Sep-14 04:00N 30°06' W 093°19'0 0.0
2017-Sep-14 03:30N 30°06' W 093°19'0 0.0
2017-Sep-14 03:00N 30°06' W 093°19'0 0.0
2017-Sep-14 02:30N 30°06' W 093°19'0 0.0
2017-Sep-14 02:00N 30°06' W 093°19'0 0.0
2017-Sep-14 01:30N 30°06' W 093°19'0 0.0
2017-Sep-14 01:00N 30°06' W 093°19'0 0.0
2017-Sep-14 00:30N 30°06' W 093°19'0 0.1
2017-Sep-14 00:00N 30°06' W 093°19'0 0.0
2017-Sep-13 23:30N 30°06' W 093°19'0 0.0
2017-Sep-13 23:00N 30°06' W 093°19'0 0.0
2017-Sep-13 22:30N 30°06' W 093°19'0 0.0
2017-Sep-13 22:00N 30°06' W 093°19'0 0.0
2017-Sep-13 21:30N 30°06' W 093°19'  
Track history (hours):
 
Tides and Currents Weather Stations Pressure Air Temp Water Temp Dewpoint Dewpoint Depression Visibility Wind Speed Wind Dir Waves Ship Positions

Charlie C

Owner: Ingram Barge Company LLC, NASHVILLE, TN. More information available from US FCC via Universal Licensing System and Coast Guard Vessel Documentation Center.

Last reported at 2017-Sep-23 21:27 UTC. Time now 2017-Sep-23 23:40 UTC.
Position N 29°50' W 092°18'.

Length 27 m; draft 3 m.

Type: Towing. MMSI: 366961220.

Date/timePositionNaut miles runAvg speedWind from/ knotsBaromVisibWave heightAir tempDewpointWater temp
2017-Sep-23 21:27N 29°50' W 092°18'2 2.2
2017-Sep-23 20:38N 29°49' W 092°17'1 2.6
2017-Sep-23 20:26N 29°49' W 092°16'1 2.6
2017-Sep-23 20:00N 29°48' W 092°15'  
2017-Sep-19 08:51N 29°50' W 092°00'2 4.4
2017-Sep-19 08:24N 29°49' W 092°02'2 4.4
2017-Sep-19 08:00N 29°48' W 092°04'2 4.5
2017-Sep-19 07:30N 29°48' W 092°06'2 4.6
2017-Sep-19 07:00N 29°47' W 092°09'2 3.7
2017-Sep-19 06:30N 29°47' W 092°11'0 0.1
2017-Sep-19 06:00N 29°47' W 092°11'0 0.0
2017-Sep-19 05:30N 29°47' W 092°11'0 0.0
2017-Sep-19 05:00N 29°47' W 092°11'0 0.1
2017-Sep-19 04:30N 29°47' W 092°11'1 2.4
2017-Sep-19 04:00N 29°47' W 092°10'2 3.1
2017-Sep-19 03:31N 29°47' W 092°08'1 2.3
2017-Sep-19 03:00N 29°48' W 092°07'2 3.5
2017-Sep-19 02:30N 29°48' W 092°05'2 3.3
2017-Sep-19 02:01N 29°49' W 092°03'2 3.2
2017-Sep-19 01:30N 29°49' W 092°01'4 3.3
2017-Sep-19 00:25N 29°50' W 091°57'  
2017-Sep-15 17:30N 29°48' W 092°15'0 0.0
2017-Sep-15 03:40N 29°48' W 092°15'0 1.9
2017-Sep-15 03:30N 29°48' W 092°15'2 3.1
2017-Sep-15 03:00N 29°49' W 092°17'2 3.8
2017-Sep-15 02:30N 29°50' W 092°18'2 3.8
2017-Sep-15 01:55N 29°51' W 092°21'3 3.9
2017-Sep-15 01:15N 29°53' W 092°23'36 3.5
2017-Sep-14 14:56N 29°56' W 093°05'1 3.1
2017-Sep-14 14:30N 29°56' W 093°06'2 3.0
2017-Sep-14 14:00N 29°56' W 093°08'2 3.1
2017-Sep-14 13:30N 29°56' W 093°10'1 2.4
2017-Sep-14 12:56N 29°57' W 093°11'1 3.0
2017-Sep-14 12:30N 29°58' W 093°12'2 3.3
2017-Sep-14 12:00N 29°60' W 093°13'2 3.2
2017-Sep-14 11:30N 30°01' W 093°14'1 3.0
2017-Sep-14 11:00N 30°02' W 093°15'2 3.1
2017-Sep-14 10:31N 30°03' W 093°16'1 2.8
2017-Sep-14 10:00N 30°05' W 093°17'1 2.7
2017-Sep-14 09:29N 30°05' W 093°18'1 2.1
2017-Sep-14 09:00N 30°06' W 093°19'0 0.3
2017-Sep-14 08:30N 30°06' W 093°19'0 0.1
2017-Sep-14 08:00N 30°06' W 093°19'0 0.0
2017-Sep-14 07:30N 30°06' W 093°19'0 0.1
2017-Sep-14 07:00N 30°06' W 093°19'0 0.0
2017-Sep-14 06:30N 30°06' W 093°19'0 0.0
2017-Sep-14 06:00N 30°06' W 093°19'0 0.1
2017-Sep-14 05:30N 30°06' W 093°19'0 0.0
2017-Sep-14 05:00N 30°06' W 093°19'0 0.0
2017-Sep-14 04:30N 30°06' W 093°19'0 0.0
2017-Sep-14 04:00N 30°06' W 093°19'0 0.0
2017-Sep-14 03:30N 30°06' W 093°19'0 0.0
2017-Sep-14 03:00N 30°06' W 093°19'0 0.0
2017-Sep-14 02:30N 30°06' W 093°19'0 0.0
2017-Sep-14 02:00N 30°06' W 093°19'0 0.0
2017-Sep-14 01:30N 30°06' W 093°19'0 0.0
2017-Sep-14 01:00N 30°06' W 093°19'0 0.0
2017-Sep-14 00:30N 30°06' W 093°19'0 0.1
2017-Sep-14 00:00N 30°06' W 093°19'0 0.0
2017-Sep-13 23:30N 30°06' W 093°19'0 0.0
2017-Sep-13 23:00N 30°06' W 093°19'0 0.0
2017-Sep-13 22:30N 30°06' W 093°19'0 0.0
2017-Sep-13 22:00N 30°06' W 093°19'0 0.0
2017-Sep-13 21:30N 30°06' W 093°19'  

Dump ship's entire track history